Airfield :
LOGIN :

Register | Disclaimer

   EN    FR    IT 

 










Legend :    VFR   Marginal VFR   IFR   Intensive IFR   Very Intensive IFR
Visi :
Ceiling :
>= 8 km
>= 3000ft
5 to 8 km
1000 to 3000 ft
1500m to 5 km
500 to 1000 ft
800 to 1500m
200 to 500 ft
< 800m
< 200 ft
Symbols :   Thunderstorms  Fog  Heavy snow  Heavy precipitations  Wind > 20 kt
SIGMETs :     Misc.  Thunderstorms  Icing  Turbulence  Mountain Waves  Volcanic Ashes






- Airport Elevation : 7 ft
- IATA code : XHE


LFTH - Hyeres

CURRENT METAR :
  • 021500Z AUTO 23011KT CAVOK 14/05 Q1024 NOSIG

EXPIRED METARs :
  • 021430Z AUTO 23011KT CAVOK 14/06 Q1024 NOSIG
  • 021400Z AUTO 22011KT CAVOK 14/06 Q1024 BECMG 28010KT
  • 021330Z AUTO 22009KT CAVOK 14/06 Q1024 BECMG 28010KT
  • 021300Z AUTO 20005KT 160V240 CAVOK 15/06 Q1024 NOSIG
  • 021230Z AUTO 22004KT 180V270 CAVOK 15/06 Q1024 NOSIG

TAF TAF LFTH
Valid from the 02 at 15:00 until the 03 at 15:00 UTC


021400Z 0215/0315 25010KT CAVOK
BECMG 0220/0222 35005KT
TEMPO 0309/0313 FEW015
BECMG 0311/0313 18005KT



MET'MAP, your aeronautical weather chart ! - Copyright ORBIFLY December 2007 - Disclaimer

ORBIFLY MET'MAP TEAM :

Programming & Development : Alexandra Zaïnal
Original concept : Baudouin d'Aumeries
Technical & hardware support : Manuel Goepfert
Assistance : Marc-Olivier Méhu




SOURCES & CREDITS :

   NOAA